createdAt,value
2019-05-23T00:01:45.381Z,99.90
2019-05-23T00:04:20.359Z,99.90
2019-05-23T00:06:50.167Z,99.90
2019-05-23T00:09:20.531Z,99.90
2019-05-23T00:12:16.524Z,99.90
2019-05-23T00:14:51.622Z,99.90
2019-05-23T00:17:23.067Z,99.90
2019-05-23T00:19:53.127Z,99.90
2019-05-23T00:22:24.190Z,99.90
2019-05-23T00:24:55.671Z,99.90
2019-05-23T00:27:27.119Z,99.90
2019-05-23T00:29:58.808Z,99.90
2019-05-23T00:32:34.633Z,99.90
2019-05-23T00:35:05.276Z,99.90
2019-05-23T00:37:35.003Z,99.90
2019-05-23T00:40:06.520Z,99.90
2019-05-23T00:42:36.780Z,99.90
2019-05-23T00:45:07.486Z,99.90
2019-05-23T00:47:39.447Z,99.90
2019-05-23T00:50:12.064Z,99.90
2019-05-23T00:52:42.665Z,99.90
2019-05-23T00:55:14.576Z,99.90
2019-05-23T00:57:45.011Z,99.90
2019-05-23T01:00:17.392Z,99.90
2019-05-23T01:02:48.105Z,99.90
2019-05-23T01:05:17.505Z,99.90
2019-05-23T01:07:48.537Z,99.90
2019-05-23T01:10:19.346Z,99.90
2019-05-23T01:12:50.013Z,99.90
2019-05-23T01:15:21.070Z,99.90
2019-05-23T01:17:51.335Z,99.90
2019-05-23T01:20:26.795Z,99.90
2019-05-23T01:22:57.786Z,99.90
2019-05-23T01:25:28.110Z,99.90
2019-05-23T01:27:58.383Z,99.90
2019-05-23T01:30:32.118Z,99.90
2019-05-23T01:33:02.543Z,99.90
2019-05-23T01:35:32.754Z,99.90
2019-05-23T01:38:04.286Z,99.90
2019-05-23T01:40:33.990Z,99.90
2019-05-23T01:43:04.580Z,99.90
2019-05-23T01:45:35.555Z,99.90
2019-05-23T01:48:05.800Z,99.90
2019-05-23T01:50:36.468Z,99.90
2019-05-23T01:53:07.866Z,99.90
2019-05-23T01:55:37.464Z,99.90
2019-05-23T01:58:07.494Z,99.90
2019-05-23T02:00:38.668Z,99.90
2019-05-23T02:03:08.799Z,99.90
2019-05-23T02:05:38.701Z,99.90
2019-05-23T02:08:11.409Z,99.90
2019-05-23T02:10:41.921Z,99.90
2019-05-23T02:13:12.532Z,99.90
2019-05-23T02:15:43.840Z,99.90
2019-05-23T02:18:13.890Z,99.90
2019-05-23T02:20:43.654Z,99.90
2019-05-23T02:23:15.094Z,99.90
2019-05-23T02:25:45.888Z,99.90
2019-05-23T02:28:15.862Z,99.90
2019-05-23T02:30:47.168Z,99.90
2019-05-23T02:33:17.566Z,99.90
2019-05-23T02:35:47.362Z,99.90
2019-05-23T02:38:28.399Z,99.90
2019-05-23T02:41:20.293Z,99.90
2019-05-23T02:43:52.866Z,99.90
2019-05-23T02:46:34.491Z,99.90
2019-05-23T02:49:07.241Z,99.90
2019-05-23T02:51:39.268Z,99.90
2019-05-23T02:54:11.983Z,99.90
2019-05-23T02:56:42.228Z,99.90
2019-05-23T02:59:39.271Z,99.90
2019-05-23T03:02:51.190Z,99.90
2019-05-23T03:05:24.949Z,99.90
2019-05-23T03:07:56.688Z,99.90
2019-05-23T03:10:28.584Z,99.90
2019-05-23T03:12:59.277Z,99.90
2019-05-23T03:15:30.879Z,99.90
2019-05-23T03:18:03.305Z,99.90
2019-05-23T03:20:34.289Z,99.90
2019-05-23T03:23:09.632Z,99.90
2019-05-23T03:26:21.472Z,99.90
2019-05-23T03:28:52.442Z,99.90
2019-05-23T03:31:31.552Z,99.90
2019-05-23T03:33:58.761Z,99.90
2019-05-23T03:36:29.368Z,99.90
2019-05-23T03:38:59.182Z,99.90
2019-05-23T03:41:30.570Z,99.90
2019-05-23T03:44:03.121Z,99.90
2019-05-23T03:46:34.398Z,99.90
2019-05-23T03:49:05.015Z,99.90
2019-05-23T03:51:36.480Z,99.90
2019-05-23T03:54:06.625Z,99.90
2019-05-23T03:56:36.196Z,99.90
2019-05-23T03:59:07.668Z,99.90
2019-05-23T04:01:48.008Z,99.90
2019-05-23T04:04:10.575Z,99.90
2019-05-23T04:06:40.009Z,99.90
2019-05-23T04:09:11.081Z,99.90
2019-05-23T04:11:41.281Z,99.90
2019-05-23T04:14:11.124Z,99.90
2019-05-23T04:16:40.743Z,99.90
2019-05-23T04:19:10.971Z,99.90
2019-05-23T04:21:40.665Z,99.90
2019-05-23T04:24:10.741Z,99.90
2019-05-23T04:26:40.538Z,99.90
2019-05-23T04:29:10.738Z,99.90
2019-05-23T04:31:40.165Z,99.90
2019-05-23T04:34:09.763Z,99.90
2019-05-23T04:36:39.578Z,99.90
2019-05-23T04:39:09.687Z,99.90
2019-05-23T04:41:39.207Z,99.90
2019-05-23T04:44:10.427Z,99.90
2019-05-23T04:46:40.206Z,99.90
2019-05-23T04:49:10.552Z,99.90
2019-05-23T04:51:41.550Z,99.90
2019-05-23T04:54:11.778Z,99.90
2019-05-23T04:56:41.322Z,99.90
2019-05-23T04:59:11.312Z,99.90
2019-05-23T05:01:40.786Z,99.90
2019-05-23T05:04:10.305Z,99.90
2019-05-23T05:06:39.991Z,99.90
2019-05-23T05:09:11.635Z,99.90
2019-05-23T05:11:41.103Z,99.90
2019-05-23T05:14:11.101Z,99.90
2019-05-23T05:16:40.687Z,99.90
2019-05-23T05:19:10.593Z,99.90
2019-05-23T05:21:40.732Z,99.90
2019-05-23T05:24:10.123Z,99.90
2019-05-23T05:26:40.468Z,99.90
2019-05-23T05:29:10.363Z,99.90
2019-05-23T05:31:40.041Z,99.90
2019-05-23T05:34:09.540Z,99.90
2019-05-23T05:36:39.627Z,99.90
2019-05-23T05:39:11.555Z,99.90
2019-05-23T05:41:42.387Z,99.90
2019-05-23T05:44:12.211Z,99.90
2019-05-23T05:46:41.613Z,99.90
2019-05-23T05:49:12.757Z,99.90
2019-05-23T05:51:42.880Z,99.90
2019-05-23T05:54:22.114Z,99.90
2019-05-23T05:57:27.228Z,99.90
2019-05-23T05:59:56.888Z,99.90
2019-05-23T06:02:27.064Z,99.90
2019-05-23T06:04:56.465Z,99.90
2019-05-23T06:07:44.769Z,99.90
2019-05-23T06:10:16.464Z,99.90
2019-05-23T06:12:46.115Z,99.90
2019-05-23T06:15:16.012Z,99.90
2019-05-23T06:17:45.622Z,99.90
2019-05-23T06:20:15.511Z,99.90
2019-05-23T06:22:46.199Z,99.90
2019-05-23T06:25:16.384Z,99.90
2019-05-23T06:27:47.119Z,99.90
2019-05-23T06:30:19.630Z,99.90
2019-05-23T06:32:49.141Z,99.90
2019-05-23T06:35:19.621Z,99.90
2019-05-23T06:37:50.134Z,99.90
2019-05-23T06:40:19.816Z,99.90
2019-05-23T06:42:50.715Z,99.90
2019-05-23T06:45:20.753Z,99.90
2019-05-23T06:47:51.059Z,99.90
2019-05-23T06:50:21.751Z,99.90
2019-05-23T06:52:51.415Z,99.90
2019-05-23T06:55:21.030Z,99.90
2019-05-23T06:57:50.507Z,99.90
2019-05-23T07:00:24.256Z,99.90
2019-05-23T07:02:53.873Z,99.90
2019-05-23T07:05:28.275Z,99.90
2019-05-23T07:07:57.945Z,99.90
2019-05-23T07:10:27.668Z,99.90
2019-05-23T07:12:57.189Z,99.90
2019-05-23T07:15:28.810Z,99.90
2019-05-23T07:17:59.703Z,99.90
2019-05-23T07:20:29.977Z,99.90
2019-05-23T07:22:59.881Z,99.90
2019-05-23T07:25:31.967Z,99.90
2019-05-23T07:28:01.467Z,99.90
2019-05-23T07:30:31.498Z,99.90
2019-05-23T07:33:00.927Z,99.90
2019-05-23T07:35:30.566Z,99.90
2019-05-23T07:38:00.183Z,99.90
2019-05-23T07:40:29.834Z,99.90
2019-05-23T07:42:59.537Z,99.90
2019-05-23T07:45:39.950Z,99.90
2019-05-23T07:48:09.526Z,99.90
2019-05-23T07:50:39.007Z,99.90
2019-05-23T07:53:10.147Z,99.90
2019-05-23T07:55:42.625Z,99.90
2019-05-23T07:58:14.402Z,99.90
2019-05-23T08:00:50.683Z,99.90
2019-05-23T08:03:21.209Z,99.90
2019-05-23T08:05:50.728Z,99.90
2019-05-23T08:08:20.311Z,99.90
2019-05-23T08:10:49.875Z,99.90
2019-05-23T08:13:19.954Z,99.90
2019-05-23T08:15:50.245Z,99.90
2019-05-23T08:18:20.616Z,99.90
2019-05-23T08:20:50.069Z,99.90
2019-05-23T08:23:19.615Z,99.90
2019-05-23T08:25:49.739Z,99.90
2019-05-23T08:28:19.745Z,99.90
2019-05-23T08:30:49.272Z,99.90
2019-05-23T08:33:19.238Z,99.90
2019-05-23T08:35:49.367Z,99.90
2019-05-23T08:38:20.128Z,99.90
2019-05-23T08:40:51.279Z,99.90
2019-05-23T08:43:21.342Z,99.90
2019-05-23T08:45:50.987Z,99.90
2019-05-23T08:48:20.421Z,99.90
2019-05-23T08:50:51.560Z,99.90
2019-05-23T08:53:21.404Z,99.90
2019-05-23T08:55:52.138Z,99.90
2019-05-23T08:58:22.483Z,99.90
2019-05-23T09:00:52.667Z,99.90
2019-05-23T09:03:22.037Z,99.90
2019-05-23T09:05:52.410Z,99.90
2019-05-23T09:08:22.145Z,99.90
2019-05-23T09:10:52.094Z,99.90
2019-05-23T09:13:21.572Z,99.90
2019-05-23T09:15:53.603Z,99.90
2019-05-23T09:18:24.030Z,99.90
2019-05-23T09:20:53.619Z,99.90
2019-05-23T09:23:23.012Z,99.90
2019-05-23T09:25:53.143Z,99.90
2019-05-23T09:28:23.483Z,99.90
2019-05-23T09:30:52.917Z,99.90
2019-05-23T09:33:22.325Z,99.90
2019-05-23T09:35:52.439Z,99.90
2019-05-23T09:38:22.556Z,99.90
2019-05-23T09:40:52.455Z,99.90
2019-05-23T09:43:21.892Z,99.90
2019-05-23T09:45:53.556Z,99.90
2019-05-23T09:48:24.495Z,99.90
2019-05-23T09:50:54.246Z,99.90
2019-05-23T09:53:23.684Z,99.90
2019-05-23T09:55:55.751Z,98.70
2019-05-23T09:58:24.587Z,99.50
2019-05-23T10:00:54.034Z,99.90
2019-05-23T10:03:23.574Z,99.40
2019-05-23T10:05:54.140Z,99.60
2019-05-23T10:08:23.677Z,99.90
2019-05-23T10:10:54.734Z,99.90
2019-05-23T10:13:38.627Z,99.90
2019-05-23T10:16:03.331Z,99.90
2019-05-23T10:18:33.515Z,99.70
2019-05-23T10:21:03.783Z,99.90
2019-05-23T10:23:34.543Z,99.90
2019-05-23T10:26:05.551Z,98.10
2019-05-23T10:28:36.679Z,97.10
2019-05-23T10:31:08.902Z,95.70
2019-05-23T10:33:38.528Z,96.10
2019-05-23T10:36:07.962Z,96.60
2019-05-23T10:38:37.987Z,97.00
2019-05-23T10:41:07.952Z,96.20
2019-05-23T10:43:37.376Z,96.60
2019-05-23T10:46:07.540Z,95.50
2019-05-23T10:48:39.283Z,96.20
2019-05-23T10:51:08.654Z,95.10
2019-05-23T10:53:38.876Z,94.80
2019-05-23T10:56:08.555Z,95.10
2019-05-23T10:58:38.135Z,94.00
2019-05-23T11:01:07.798Z,94.40
2019-05-23T11:03:37.523Z,93.80
2019-05-23T11:06:16.202Z,94.20
2019-05-23T11:08:40.054Z,93.80
2019-05-23T11:11:13.942Z,93.70
2019-05-23T11:13:41.451Z,94.20
2019-05-23T11:16:11.317Z,91.60
2019-05-23T11:18:40.986Z,91.80
2019-05-23T11:21:10.552Z,92.80
2019-05-23T11:23:44.218Z,94.20
2019-05-23T11:26:14.107Z,92.80
2019-05-23T11:28:44.164Z,92.10
2019-05-23T11:31:13.767Z,91.60
2019-05-23T11:33:43.170Z,92.30
2019-05-23T11:36:13.729Z,91.90
2019-05-23T11:38:43.262Z,91.70
2019-05-23T11:41:13.020Z,91.40
2019-05-23T11:43:43.004Z,91.70
2019-05-23T11:46:19.284Z,91.00
2019-05-23T11:48:49.269Z,90.30
2019-05-23T11:51:19.412Z,90.80
2019-05-23T11:54:06.034Z,88.40
2019-05-23T11:56:20.757Z,89.90
2019-05-23T11:58:50.559Z,88.80
2019-05-23T12:01:42.500Z,88.10
2019-05-23T12:04:20.484Z,87.40
2019-05-23T12:06:56.464Z,86.70
2019-05-23T12:09:26.803Z,85.10
2019-05-23T12:11:57.069Z,85.40
2019-05-23T12:14:26.683Z,87.80
2019-05-23T12:16:57.540Z,87.90
2019-05-23T12:19:27.934Z,88.70
2019-05-23T12:21:57.481Z,85.60
2019-05-23T12:24:26.936Z,87.70
2019-05-23T12:26:56.504Z,87.70
2019-05-23T12:29:26.069Z,86.10
2019-05-23T12:31:56.208Z,85.00
2019-05-23T12:34:26.022Z,84.00
2019-05-23T12:37:17.292Z,84.50
2019-05-23T12:39:27.812Z,83.50
2019-05-23T12:41:57.364Z,84.60
2019-05-23T12:44:26.920Z,83.40
2019-05-23T12:46:56.370Z,83.90
2019-05-23T12:49:31.182Z,83.10
2019-05-23T12:52:01.135Z,82.80
2019-05-23T12:54:31.200Z,83.80
2019-05-23T12:57:00.545Z,84.50
2019-05-23T12:59:30.290Z,86.50
2019-05-23T13:02:01.735Z,83.50
2019-05-23T13:04:31.552Z,84.10
2019-05-23T13:07:01.153Z,83.10
2019-05-23T13:09:30.690Z,82.50
2019-05-23T13:12:00.121Z,82.30
2019-05-23T13:14:30.722Z,82.90
2019-05-23T13:17:01.630Z,82.40
2019-05-23T13:19:31.863Z,80.00
2019-05-23T13:22:02.144Z,78.80
2019-05-23T13:24:50.644Z,78.40
2019-05-23T13:27:04.668Z,77.30
2019-05-23T13:29:34.607Z,78.60
2019-05-23T13:32:05.306Z,78.00
2019-05-23T13:34:35.545Z,75.20
2019-05-23T13:37:07.003Z,74.90
2019-05-23T13:39:37.208Z,77.40
2019-05-23T13:42:07.212Z,78.60
2019-05-23T13:44:36.718Z,77.50
2019-05-23T13:47:06.246Z,75.70
2019-05-23T13:49:35.970Z,76.60
2019-05-23T13:52:05.758Z,75.90
2019-05-23T13:54:36.383Z,75.40
2019-05-23T13:57:08.040Z,76.20
2019-05-23T13:59:38.384Z,77.90
2019-05-23T14:02:10.218Z,76.40
2019-05-23T14:04:41.291Z,73.00
2019-05-23T14:07:12.150Z,75.20
2019-05-23T14:09:41.708Z,76.20
2019-05-23T14:12:26.520Z,73.10
2019-05-23T14:14:42.812Z,74.10
2019-05-23T14:17:29.813Z,73.80
2019-05-23T14:19:59.527Z,73.90
2019-05-23T14:22:32.610Z,73.00
2019-05-23T14:25:02.534Z,72.40
2019-05-23T14:27:51.229Z,71.70
2019-05-23T14:30:36.195Z,73.00
2019-05-23T14:33:10.450Z,69.50
2019-05-23T14:35:41.123Z,72.70
2019-05-23T14:38:29.198Z,73.80
2019-05-23T14:40:44.549Z,71.50
2019-05-23T14:43:21.403Z,70.20
2019-05-23T14:45:57.863Z,67.40
2019-05-23T14:49:03.386Z,68.00
2019-05-23T14:51:52.064Z,68.90
2019-05-23T14:54:37.159Z,68.00
2019-05-23T14:57:07.928Z,68.20
2019-05-23T14:59:38.119Z,67.60
2019-05-23T15:02:12.399Z,67.70
2019-05-23T15:04:42.162Z,68.10
2019-05-23T15:07:11.956Z,68.30
2019-05-23T15:09:41.733Z,67.20
2019-05-23T15:12:11.597Z,67.60
2019-05-23T15:14:42.257Z,68.70
2019-05-23T15:17:12.170Z,66.90
2019-05-23T15:19:45.228Z,68.30
2019-05-23T15:22:14.281Z,67.60
2019-05-23T15:24:44.130Z,66.60
2019-05-23T15:27:13.593Z,65.60
2019-05-23T15:29:43.636Z,66.80
2019-05-23T15:32:13.305Z,64.80
2019-05-23T15:34:42.819Z,66.70
2019-05-23T15:37:12.520Z,66.90
2019-05-23T15:39:43.645Z,68.10
2019-05-23T15:42:13.281Z,66.60
2019-05-23T15:44:42.990Z,65.20
2019-05-23T15:47:12.668Z,64.80
2019-05-23T15:49:44.564Z,65.20
2019-05-23T15:52:37.731Z,64.00
2019-05-23T15:55:29.461Z,65.50
2019-05-23T15:58:06.085Z,63.40
2019-05-23T16:00:54.984Z,64.80
2019-05-23T16:03:35.296Z,64.90
2019-05-23T16:06:07.052Z,63.80
2019-05-23T16:08:38.274Z,64.30
2019-05-23T16:11:07.928Z,63.10
2019-05-23T16:13:37.414Z,65.10
2019-05-23T16:16:07.642Z,63.50
2019-05-23T16:18:37.825Z,63.90
2019-05-23T16:21:07.887Z,65.10
2019-05-23T16:23:37.835Z,65.60
2019-05-23T16:26:09.379Z,65.10
2019-05-23T16:28:38.518Z,66.30
2019-05-23T16:31:08.269Z,66.50
2019-05-23T16:33:38.441Z,66.40
2019-05-23T16:36:08.524Z,66.00
2019-05-23T16:38:38.005Z,66.20
2019-05-23T16:41:11.640Z,68.20
2019-05-23T16:43:41.007Z,66.90
2019-05-23T16:46:10.816Z,65.90
2019-05-23T16:48:40.542Z,65.20
2019-05-23T16:51:10.400Z,64.90
2019-05-23T16:53:40.791Z,65.90
2019-05-23T16:56:18.083Z,66.20
2019-05-23T16:59:18.827Z,67.50
2019-05-23T17:02:16.419Z,67.70
2019-05-23T17:05:08.430Z,67.90
2019-05-23T17:07:37.076Z,68.30
2019-05-23T17:10:26.024Z,66.80
2019-05-23T17:13:04.108Z,67.00
2019-05-23T17:16:11.459Z,66.30
2019-05-23T17:18:50.125Z,66.00
2019-05-23T17:21:31.054Z,66.10
2019-05-23T17:24:06.611Z,67.50
2019-05-23T17:27:13.894Z,66.70
2019-05-23T17:29:50.534Z,68.30
2019-05-23T17:32:25.077Z,67.50
2019-05-23T17:34:54.601Z,67.60
2019-05-23T17:37:25.145Z,70.40
2019-05-23T17:39:55.789Z,68.60
2019-05-23T17:42:25.579Z,69.20
2019-05-23T17:44:55.045Z,69.60
2019-05-23T17:47:25.067Z,68.50
2019-05-23T17:49:55.096Z,67.40
2019-05-23T17:52:25.051Z,68.20
2019-05-23T17:54:54.970Z,67.00
2019-05-23T17:57:25.195Z,67.60
2019-05-23T17:59:54.962Z,67.10
2019-05-23T18:02:24.701Z,67.70
2019-05-23T18:04:54.826Z,67.40
2019-05-23T18:07:25.442Z,68.10
2019-05-23T18:09:56.817Z,67.20
2019-05-23T18:12:26.838Z,67.00
2019-05-23T18:14:56.568Z,67.20
2019-05-23T18:17:28.432Z,66.40
2019-05-23T18:19:58.313Z,67.20
2019-05-23T18:22:28.730Z,66.20
2019-05-23T18:25:00.008Z,65.90
2019-05-23T18:27:30.119Z,65.70
2019-05-23T18:30:00.341Z,65.30
2019-05-23T18:32:30.511Z,65.70
2019-05-23T18:35:00.710Z,67.30
2019-05-23T18:37:31.017Z,67.60
2019-05-23T18:40:00.580Z,67.90
2019-05-23T18:42:31.615Z,68.10
2019-05-23T18:45:01.866Z,70.20
2019-05-23T18:47:38.816Z,72.60
2019-05-23T18:50:10.260Z,72.30
2019-05-23T18:52:39.987Z,74.30
2019-05-23T18:55:10.037Z,76.60
2019-05-23T18:57:39.813Z,76.80
2019-05-23T19:00:11.368Z,78.30
2019-05-23T19:02:41.105Z,79.70
2019-05-23T19:05:11.932Z,81.30
2019-05-23T19:07:41.920Z,82.50
2019-05-23T19:10:12.582Z,83.10
2019-05-23T19:12:43.330Z,83.50
2019-05-23T19:15:13.690Z,83.30
2019-05-23T19:17:43.617Z,79.20
2019-05-23T19:20:14.793Z,78.90
2019-05-23T19:22:44.645Z,76.20
2019-05-23T19:25:14.132Z,76.40
2019-05-23T19:27:44.086Z,76.00
2019-05-23T19:30:33.238Z,76.60
2019-05-23T19:33:03.119Z,75.60
2019-05-23T19:35:32.890Z,76.00
2019-05-23T19:38:03.247Z,76.90
2019-05-23T19:40:33.463Z,76.40
2019-05-23T19:43:02.955Z,76.40
2019-05-23T19:45:32.836Z,75.50
2019-05-23T19:48:02.662Z,76.00
2019-05-23T19:50:32.944Z,75.90
2019-05-23T19:53:02.770Z,74.90
2019-05-23T19:55:32.682Z,75.00
2019-05-23T19:58:02.802Z,74.60
2019-05-23T20:00:34.186Z,75.40
2019-05-23T20:03:04.673Z,75.20
2019-05-23T20:05:36.663Z,75.80
2019-05-23T20:08:06.837Z,75.40
2019-05-23T20:10:37.473Z,75.20
2019-05-23T20:13:07.449Z,76.20
2019-05-23T20:15:37.835Z,76.60
2019-05-23T20:18:08.403Z,76.70
2019-05-23T20:20:39.357Z,76.70
2019-05-23T20:23:15.481Z,76.90
2019-05-23T20:25:43.533Z,75.90
2019-05-23T20:28:13.893Z,74.60
2019-05-23T20:30:56.759Z,74.30
2019-05-23T20:33:26.843Z,74.10
2019-05-23T20:35:56.616Z,73.90
2019-05-23T20:38:27.080Z,73.30
2019-05-23T20:40:57.350Z,72.30
2019-05-23T20:43:27.198Z,75.40
2019-05-23T20:45:56.737Z,77.50
2019-05-23T20:48:26.805Z,79.50
2019-05-23T20:50:56.447Z,76.20
2019-05-23T20:53:26.567Z,74.30
2019-05-23T20:55:56.278Z,75.00
2019-05-23T20:58:26.004Z,70.40
2019-05-23T21:01:07.579Z,70.50
2019-05-23T21:03:37.494Z,69.40
2019-05-23T21:06:07.772Z,69.00
2019-05-23T21:08:37.783Z,68.40
2019-05-23T21:11:07.393Z,68.80
2019-05-23T21:13:37.299Z,69.40
2019-05-23T21:16:07.339Z,68.70
2019-05-23T21:18:36.983Z,69.10
2019-05-23T21:21:07.214Z,71.60
2019-05-23T21:23:37.097Z,74.80
2019-05-23T21:26:07.249Z,76.50
2019-05-23T21:28:37.259Z,76.90
2019-05-23T21:31:19.887Z,77.00
2019-05-23T21:33:49.715Z,77.40
2019-05-23T21:36:19.312Z,78.50
2019-05-23T21:38:48.854Z,75.70
2019-05-23T21:41:18.700Z,74.90
2019-05-23T21:43:49.615Z,76.00
2019-05-23T21:46:19.446Z,77.30
2019-05-23T21:48:48.891Z,77.80
2019-05-23T21:51:18.670Z,80.10
2019-05-23T21:53:48.284Z,80.10
2019-05-23T21:56:17.929Z,81.70
2019-05-23T21:58:47.722Z,81.10
2019-05-23T22:01:40.373Z,80.20
2019-05-23T22:04:28.956Z,81.80
2019-05-23T22:07:00.851Z,82.60
2019-05-23T22:09:31.122Z,81.30
2019-05-23T22:12:01.568Z,80.80
2019-05-23T22:14:33.178Z,82.00
2019-05-23T22:17:02.782Z,83.40
2019-05-23T22:19:33.580Z,82.80
2019-05-23T22:22:04.119Z,82.80
2019-05-23T22:24:33.583Z,83.00
2019-05-23T22:27:03.172Z,84.00
2019-05-23T22:29:33.015Z,84.90
2019-05-23T22:32:04.385Z,85.00
2019-05-23T22:34:44.711Z,86.90
2019-05-23T22:37:32.840Z,87.70
2019-05-23T22:40:02.313Z,88.10
2019-05-23T22:42:32.120Z,90.00
2019-05-23T22:45:03.404Z,90.40
2019-05-23T22:47:33.455Z,90.00
2019-05-23T22:50:03.245Z,90.50
2019-05-23T22:52:33.439Z,90.80
2019-05-23T22:55:03.387Z,90.70
2019-05-23T22:57:32.935Z,90.30
2019-05-23T23:00:02.826Z,90.50
2019-05-23T23:02:32.804Z,91.00
2019-05-23T23:05:02.228Z,91.00
2019-05-23T23:07:32.249Z,91.40
2019-05-23T23:10:01.686Z,91.50
2019-05-23T23:12:31.778Z,91.80
2019-05-23T23:15:01.329Z,91.90
2019-05-23T23:17:31.299Z,91.70
2019-05-23T23:20:02.455Z,92.20
2019-05-23T23:22:31.956Z,92.40
2019-05-23T23:25:01.526Z,92.90
2019-05-23T23:27:30.942Z,93.00
2019-05-23T23:30:00.468Z,93.50
2019-05-23T23:32:29.938Z,93.70
2019-05-23T23:35:00.190Z,93.50
2019-05-23T23:37:30.555Z,93.60
2019-05-23T23:40:00.885Z,94.00
2019-05-23T23:42:30.278Z,94.50
2019-05-23T23:45:17.755Z,94.80
2019-05-23T23:48:05.279Z,95.00
2019-05-23T23:50:52.604Z,95.20
2019-05-23T23:53:39.791Z,95.40
2019-05-23T23:56:26.771Z,95.60
2019-05-23T23:58:55.347Z,95.70
